Nearby METAR Reports


Data Updates Approximately Every Four Hours

METAR is the international standard code format for hourly surface weather observations which is analogous to the SA coding currently used in the US. The acronym roughly translates from French as Aviation Routine Weather Report. SPECI is merely the code name given to METAR formatted products which are issued on a special non-routine basis as dictated by changing meteorological conditions. The SPECI acronym roughly translates as Aviation Selected Special Weather Report.

KSLH - Cheboygan, Michigan, USA
Distance from station: W 9mi, 14km
Updated: 04/22/2019 11:55am
Overcast
Overcast
 Wind from NE
Wind: NE 9 mph , 15 km/h
Temperature: 39°F , 4°C
Wind Chill: 33°F , 1°C
Dew Point: 36°F , 2°C
Humidity: 87%
Barometer: 30.08 inHg , 1018.6 hPa
Clouds: Overcast
Visibility: 10 miles , 16 km
Cloud details: Mostly cloudy 10000 ft
Overcast 12000 ft
2019/04/22 15:55 KSLH 221555Z AUTO 05008KT 10SM UP BKN100 OVC120 04/02 A3008 RMK AO2 T00420023
KMCD - Mackinac Island, Michigan, USA
Distance from station: NW 19mi, 31km
Updated: 04/22/2019 11:55am
Overcast
Overcast
 Wind from E
Wind: E 15 mph , 24 km/h, Gust: 23 mph , 37 km/h
Temperature: 39°F , 4°C
Wind Chill: 31°F , -1°C
Dew Point: 37°F , 3°C
Humidity: 93%
Barometer: 30.07 inHg , 1018.3 hPa
Clouds: Overcast
Visibility: 10 miles , 16 km
Cloud details: Overcast 9000 ft
2019/04/22 15:55 KMCD 221555Z AUTO 08013G20KT 10SM OVC090 04/03 A3007 RMK AO2 T00370025
 
KPLN - Pellston, Michigan, USA
Distance from station: WSW 24mi, 38km
Updated: 04/22/2019 11:54am
Mostly cloudy
Mostly cloudy
 Wind from ESE
Wind: ESE 3 mph , 6 km/h
Temperature: 57°F , 14°C
Dew Point: 39°F , 4°C
Humidity: 51%
Barometer: 30.06 inHg , 1017.9 hPa
Clouds: Mostly cloudy
Visibility: 10 miles , 16 km
Cloud details: Mostly cloudy 11000 ft
2019/04/22 15:54 KPLN 221554Z AUTO 12003KT 10SM BKN110 14/04 A3006 RMK AO2 RAB38E50 SLP184 P0000 T01440039
KPZQ - Rogers City, Michigan, USA
Distance from station: SE 31mi, 50km
Updated: 04/22/2019 11:56am
Clear
Clear
 Wind from SE
Wind: SE 10 mph , 17 km/h
Temperature: 64°F , 18°C
Dew Point: 45°F , 7°C
Humidity: 49%
Barometer: 30.10 inHg , 1019.3 hPa
Clouds: Clear
Visibility: 10 miles , 16 km
2019/04/22 15:56 KPZQ 221556Z AUTO 14009KT 10SM CLR 18/07 A3010 RMK AO2 T01780065
 
KMGN - Harbor Springs, Michigan, USA
Distance from station: WSW 32mi, 52km
Updated: 04/22/2019 11:55am
Overcast
Overcast
 Wind from ENE
Wind: ENE 7 mph , 11 km/h
Temperature: 61°F , 16°C
Dew Point: 37°F , 3°C
Humidity: 42%
Barometer: 30.04 inHg , 1017.3 hPa
Clouds: Overcast
Visibility: 10 miles , 16 km
Cloud details: Mostly cloudy 10000 ft
Overcast 12000 ft
2019/04/22 15:55 KMGN 221555Z AUTO 07006KT 10SM BKN100 OVC120 16/03 A3004 RMK AO2 T01640036
KDRM - Drummond Is, Michigan, USA
Distance from station: NE 36mi, 59km
Updated: 04/22/2019 11:55am
Overcast
Overcast
 Wind from SE
Wind: SE 7 mph , 11 km/h
Temperature: 54°F , 12°C
Dew Point: 41°F , 5°C
Humidity: 63%
Barometer: 30.11 inHg , 1019.6 hPa
Clouds: Overcast
Visibility: 10 miles , 16 km
Cloud details: Mostly cloudy 9500 ft
Overcast 11000 ft
2019/04/22 15:55 KDRM 221555Z AUTO 14006KT 10SM BKN095 OVC110 12/05 A3011 RMK AO2 T01160052
 
KCIU - Chippewa Intl, Michigan, USA
Distance from station: N 41mi, 66km
Updated: 04/22/2019 11:56am
Overcast
Overcast
 Wind from ENE
Wind: ENE 13 mph , 20 km/h
Temperature: 43°F , 6°C
Wind Chill: 36°F , 2°C
Dew Point: 39°F , 4°C
Humidity: 87%
Barometer: 30.10 inHg , 1019.3 hPa
Clouds: Overcast
Visibility: 10 miles , 16 km
Cloud details: Overcast 8000 ft
2019/04/22 15:56 KCIU 221556Z AUTO 07011KT 10SM OVC080 06/04 A3010 RMK AO2 RAE55 SLP225 P0003 T00560039
KGLR - Gaylord, Michigan, USA
Distance from station: SSW 48mi, 77km
Updated: 04/22/2019 11:53am
Clear
Clear
 Wind from S
Wind: S 10 mph , 17 km/h
Temperature: 66°F , 19°C
Dew Point: 39°F , 4°C
Humidity: 37%
Barometer: 30.07 inHg , 1018.3 hPa
Clouds: Clear
Visibility: 10 miles , 16 km
2019/04/22 15:53 KGLR 221553Z AUTO 17009KT 10SM CLR 19/04 A3007 RMK AO2 SLP182 T01940039
 
KCVX - Charlevoix, Michigan, USA
Distance from station: WSW 52mi, 83km
Updated: 04/22/2019 11:56am
Overcast
Overcast
 Wind from NE
Wind: NE 6 mph , 9 km/h
Temperature: 64°F , 18°C
Dew Point: 39°F , 4°C
Humidity: 40%
Barometer: 30.06 inHg , 1017.9 hPa
Clouds: Overcast
Visibility: 10 miles , 16 km
Cloud details: Overcast 10000 ft
2019/04/22 15:56 KCVX 221556Z AUTO 04005KT 10SM OVC100 18/04 A3006 RMK AO2 T01760040
KANJ - Sault Ste Marie, Michigan, USA
Distance from station: N 56mi, 89km
Updated: 04/22/2019 11:55am
Overcast
Overcast
 Wind from NE
Wind: NE 6 mph , 9 km/h
Temperature: 45°F , 7°C
Wind Chill: 42°F , 6°C
Dew Point: 43°F , 6°C
Humidity: 93%
Barometer: 30.13 inHg , 1020.3 hPa
Clouds: Overcast
Visibility: 10 miles , 16 km
Cloud details: Mostly cloudy 4100 ft
Overcast 8500 ft
2019/04/22 15:55 KANJ 221555Z AUTO 05005KT 10SM BKN041 OVC085 07/06 A3013 RMK AO2 RAE54 SLP204 P0003 T00720056
 
KAPN - Alpena, Michigan, USA
Distance from station: SE 56mi, 89km
Updated: 04/22/2019 11:54am
Clear
Clear
 Wind from E
Wind: E 8 mph , 13 km/h
Temperature: 64°F , 18°C
Dew Point: 46°F , 8°C
Humidity: 52%
Barometer: 30.10 inHg , 1019.3 hPa
Clouds: Clear
Visibility: 10 miles , 16 km
2019/04/22 15:54 KAPN 221554Z AUTO 10007KT 10SM CLR 18/08 A3010 RMK AO2 SLP195 T01830078
CYAM - Sault Ste Marie, Ontario, Canada
Distance from station: N 56mi, 90km
Updated: 04/22/2019 11:00am
Light rain, Overcast
Light rain, Overcast
 Wind from ENE
Wind: ENE 8 mph , 13 km/h
Temperature: 41°F , 5°C
Wind Chill: 36°F , 2°C
Dew Point: 41°F , 5°C
Humidity: 100%
Barometer: 30.13 inHg , 1020.3 hPa
Summary: Light rain
Clouds: Overcast
Visibility: 10 miles , 16 km
Cloud details: Few Clouds 4100 ft
Partly cloudy 5900 ft
Overcast 8400 ft
2019/04/22 15:00 CYAM 221500Z 07007KT 10SM -RA FEW041 SCT059 OVC084 05/05 A3013 RMK CU2SC1AC5 SLP210
 
KSJX - Beaver Island, Michigan, USA
Distance from station: W 60mi, 96km
Updated: 04/22/2019 11:56am
Partly cloudy
Partly cloudy
 Wind from E
Wind: E 10 mph , 17 km/h
Temperature: 48°F , 9°C
Wind Chill: 44°F , 7°C
Dew Point: 36°F , 2°C
Humidity: 62%
Barometer: 30.07 inHg , 1018.3 hPa
Clouds: Partly cloudy
Visibility: 10 miles , 16 km
Cloud details: Partly cloudy 9000 ft
2019/04/22 15:56 KSJX 221556Z AUTO 09009KT 10SM SCT090 09/02 A3007 RMK AO2 T00930024
KACB - Bellaire, Michigan, USA
Distance from station: SW 63mi, 102km
Updated: 04/22/2019 11:56am
Clear
Clear
 Wind from S
Wind: S 9 mph , 15 km/h
Temperature: 73°F , 23°C
Dew Point: 36°F , 2°C
Humidity: 25%
Barometer: 30.02 inHg , 1016.6 hPa
Clouds: Clear
Visibility: 10 miles , 16 km
2019/04/22 15:56 KACB 221556Z AUTO 18008KT 10SM CLR 23/02 A3002 RMK AO2 T02280022
 
CWNL - Great Duck Island, Ontario, Canada
Distance from station: E 66mi, 106km
Updated: 04/22/2019 11:00am

 Wind from ESE
Wind: ESE 10 mph , 17 km/h, Gust: 18 mph , 30 km/h
Temperature: 45°F , 7°C
Wind Chill: 40°F , 4°C
Dew Point: 37°F , 3°C
Humidity: 76%
2019/04/22 15:00 CWNL 221500Z AUTO 11009G16KT 07/03 RMK AO1 SLP215 T00670028 57007
KERY - Newberry, Michigan, USA
Distance from station: NW 69mi, 112km
Updated: 04/22/2019 11:55am
Overcast
Overcast
 Wind from ENE
Wind: ENE 8 mph , 13 km/h
Temperature: 41°F , 5°C
Wind Chill: 36°F , 2°C
Dew Point: 39°F , 4°C
Humidity: 93%
Barometer: 30.09 inHg , 1019 hPa
Clouds: Overcast
Visibility: 7 miles , 11 km
Cloud details: Mostly cloudy 300 ft
Overcast 3500 ft
2019/04/22 15:55 KERY 221555Z AUTO 06007KT 7SM BKN003 OVC035 05/04 A3009 RMK AO2 T00530041
 
KGOV - Grayling Af, Michigan, USA
Distance from station: SSW 70mi, 113km
Updated: 04/22/2019 11:58am
Clear
Clear
 Wind from S
Wind: S 10 mph , 17 km/h
Temperature: 70°F , 21°C
Dew Point: 41°F , 5°C
Humidity: 35%
Barometer: 30.07 inHg , 1018.3 hPa
Clouds: Clear
Visibility: 10 miles , 16 km
2019/04/22 15:58 KGOV 221558Z AUTO 19009KT 10SM CLR 21/05 A3007 RMK AO2 SLP189 T02100049 $